sensor_id;sensor_type;location;lat;lon;timestamp;temperature;humidity
70820;DHT22;58439;51.046;13.692;2023-05-15T00:01:41;13.20;98.10
70820;DHT22;58439;51.046;13.692;2023-05-15T00:04:16;13.20;98.20
70820;DHT22;58439;51.046;13.692;2023-05-15T00:07:03;13.20;98.50
70820;DHT22;58439;51.046;13.692;2023-05-15T00:10:09;13.20;98.40
70820;DHT22;58439;51.046;13.692;2023-05-15T00:12:50;13.20;98.40
70820;DHT22;58439;51.046;13.692;2023-05-15T00:16:07;13.20;98.60
70820;DHT22;58439;51.046;13.692;2023-05-15T00:18:45;13.10;98.70
70820;DHT22;58439;51.046;13.692;2023-05-15T00:21:12;13.10;98.70
70820;DHT22;58439;51.046;13.692;2023-05-15T00:23:43;13.00;98.70
70820;DHT22;58439;51.046;13.692;2023-05-15T00:26:18;12.90;98.80
70820;DHT22;58439;51.046;13.692;2023-05-15T00:28:59;12.80;99.00
70820;DHT22;58439;51.046;13.692;2023-05-15T00:31:45;12.60;99.40
70820;DHT22;58439;51.046;13.692;2023-05-15T00:34:32;12.50;99.70
70820;DHT22;58439;51.046;13.692;2023-05-15T00:37:33;12.40;99.90
70820;DHT22;58439;51.046;13.692;2023-05-15T00:40:04;12.30;99.90
70820;DHT22;58439;51.046;13.692;2023-05-15T00:42:39;12.20;99.90
70820;DHT22;58439;51.046;13.692;2023-05-15T00:45:08;12.10;99.90
70820;DHT22;58439;51.046;13.692;2023-05-15T00:47:37;12.10;99.90
70820;DHT22;58439;51.046;13.692;2023-05-15T00:50:07;12.00;99.90
70820;DHT22;58439;51.046;13.692;2023-05-15T00:52:36;12.00;99.90
70820;DHT22;58439;51.046;13.692;2023-05-15T00:55:04;11.90;99.90
70820;DHT22;58439;51.046;13.692;2023-05-15T00:57:35;11.90;99.90
70820;DHT22;58439;51.046;13.692;2023-05-15T01:00:03;11.80;99.90
70820;DHT22;58439;51.046;13.692;2023-05-15T01:02:36;11.80;99.90
70820;DHT22;58439;51.046;13.692;2023-05-15T01:05:06;11.80;99.90
70820;DHT22;58439;51.046;13.692;2023-05-15T01:07:42;11.80;99.90
70820;DHT22;58439;51.046;13.692;2023-05-15T01:10:17;11.80;99.90
70820;DHT22;58439;51.046;13.692;2023-05-15T01:12:49;11.80;99.90
70820;DHT22;58439;51.046;13.692;2023-05-15T01:15:23;11.80;99.90
70820;DHT22;58439;51.046;13.692;2023-05-15T01:18:10;11.80;99.90
70820;DHT22;58439;51.046;13.692;2023-05-15T01:24:15;11.80;99.90
70820;DHT22;58439;51.046;13.692;2023-05-15T01:32:46;11.90;99.90
70820;DHT22;58439;51.046;13.692;2023-05-15T01:35:40;11.90;99.90
70820;DHT22;58439;51.046;13.692;2023-05-15T01:38:41;12.00;99.90
70820;DHT22;58439;51.046;13.692;2023-05-15T01:45:57;12.00;99.90
70820;DHT22;58439;51.046;13.692;2023-05-15T01:48:25;12.10;99.90
70820;DHT22;58439;51.046;13.692;2023-05-15T01:50:59;12.10;99.90
70820;DHT22;58439;51.046;13.692;2023-05-15T01:53:31;12.20;99.90
70820;DHT22;58439;51.046;13.692;2023-05-15T01:56:00;12.20;99.90
70820;DHT22;58439;51.046;13.692;2023-05-15T01:58:30;12.20;99.90
70820;DHT22;58439;51.046;13.692;2023-05-15T02:00:58;12.20;99.90
70820;DHT22;58439;51.046;13.692;2023-05-15T02:03:29;12.30;99.90
70820;DHT22;58439;51.046;13.692;2023-05-15T02:06:04;12.30;99.90
70820;DHT22;58439;51.046;13.692;2023-05-15T02:08:34;12.40;99.90
70820;DHT22;58439;51.046;13.692;2023-05-15T02:11:03;12.40;99.90
70820;DHT22;58439;51.046;13.692;2023-05-15T02:13:32;12.50;99.90
70820;DHT22;58439;51.046;13.692;2023-05-15T02:16:00;12.50;99.90
70820;DHT22;58439;51.046;13.692;2023-05-15T02:18:27;12.50;99.90
70820;DHT22;58439;51.046;13.692;2023-05-15T02:20:59;12.50;99.90
70820;DHT22;58439;51.046;13.692;2023-05-15T02:23:29;12.50;99.90
70820;DHT22;58439;51.046;13.692;2023-05-15T02:29:19;12.50;99.90
70820;DHT22;58439;51.046;13.692;2023-05-15T02:33:07;12.40;99.90
70820;DHT22;58439;51.046;13.692;2023-05-15T02:36:21;12.50;99.90
70820;DHT22;58439;51.046;13.692;2023-05-15T02:39:00;12.40;99.90
70820;DHT22;58439;51.046;13.692;2023-05-15T02:42:01;12.40;99.90
70820;DHT22;58439;51.046;13.692;2023-05-15T02:45:04;12.40;99.90
70820;DHT22;58439;51.046;13.692;2023-05-15T02:47:41;12.40;99.90
70820;DHT22;58439;51.046;13.692;2023-05-15T02:50:35;12.40;99.90
70820;DHT22;58439;51.046;13.692;2023-05-15T02:53:16;12.40;99.90
70820;DHT22;58439;51.046;13.692;2023-05-15T02:55:44;12.40;99.90
70820;DHT22;58439;51.046;13.692;2023-05-15T02:58:11;12.50;99.90
70820;DHT22;58439;51.046;13.692;2023-05-15T03:00:38;12.50;99.90
70820;DHT22;58439;51.046;13.692;2023-05-15T03:03:06;12.50;99.90
70820;DHT22;58439;51.046;13.692;2023-05-15T03:05:35;12.50;99.90
70820;DHT22;58439;51.046;13.692;2023-05-15T03:08:03;12.40;99.90
70820;DHT22;58439;51.046;13.692;2023-05-15T03:10:31;12.40;99.90
70820;DHT22;58439;51.046;13.692;2023-05-15T03:12:58;12.40;99.90
70820;DHT22;58439;51.046;13.692;2023-05-15T03:15:25;12.40;99.90
70820;DHT22;58439;51.046;13.692;2023-05-15T03:17:53;12.50;99.90
70820;DHT22;58439;51.046;13.692;2023-05-15T03:20:20;12.50;99.90
70820;DHT22;58439;51.046;13.692;2023-05-15T03:22:48;12.60;99.90
70820;DHT22;58439;51.046;13.692;2023-05-15T03:25:17;12.60;99.90
70820;DHT22;58439;51.046;13.692;2023-05-15T03:28:54;12.60;99.90
70820;DHT22;58439;51.046;13.692;2023-05-15T03:31:58;12.60;99.90
70820;DHT22;58439;51.046;13.692;2023-05-15T03:35:03;12.60;99.90
70820;DHT22;58439;51.046;13.692;2023-05-15T03:38:09;12.60;99.90
70820;DHT22;58439;51.046;13.692;2023-05-15T03:40:38;12.60;99.90
70820;DHT22;58439;51.046;13.692;2023-05-15T03:43:05;12.50;99.90
70820;DHT22;58439;51.046;13.692;2023-05-15T03:45:33;12.50;99.90
70820;DHT22;58439;51.046;13.692;2023-05-15T03:48:05;12.40;99.90
70820;DHT22;58439;51.046;13.692;2023-05-15T03:50:57;12.40;99.90
70820;DHT22;58439;51.046;13.692;2023-05-15T03:53:24;12.40;99.90
70820;DHT22;58439;51.046;13.692;2023-05-15T03:55:52;12.30;99.90
70820;DHT22;58439;51.046;13.692;2023-05-15T03:58:19;12.30;99.90
70820;DHT22;58439;51.046;13.692;2023-05-15T04:00:46;12.30;99.90
70820;DHT22;58439;51.046;13.692;2023-05-15T04:03:13;12.30;99.90
70820;DHT22;58439;51.046;13.692;2023-05-15T04:05:40;12.30;99.90
70820;DHT22;58439;51.046;13.692;2023-05-15T04:08:08;12.30;99.90
70820;DHT22;58439;51.046;13.692;2023-05-15T04:10:36;12.30;99.90
70820;DHT22;58439;51.046;13.692;2023-05-15T04:13:03;12.20;99.90
70820;DHT22;58439;51.046;13.692;2023-05-15T04:15:34;12.20;99.90
70820;DHT22;58439;51.046;13.692;2023-05-15T04:18:26;12.30;99.90
70820;DHT22;58439;51.046;13.692;2023-05-15T04:21:52;12.30;99.90
70820;DHT22;58439;51.046;13.692;2023-05-15T04:24:19;12.30;99.90
70820;DHT22;58439;51.046;13.692;2023-05-15T04:26:48;12.30;99.90
70820;DHT22;58439;51.046;13.692;2023-05-15T04:29:25;12.40;99.90
70820;DHT22;58439;51.046;13.692;2023-05-15T04:31:53;12.50;99.90
70820;DHT22;58439;51.046;13.692;2023-05-15T04:34:25;12.50;99.90
70820;DHT22;58439;51.046;13.692;2023-05-15T04:36:56;12.50;99.90
70820;DHT22;58439;51.046;13.692;2023-05-15T04:39:29;12.50;99.90
70820;DHT22;58439;51.046;13.692;2023-05-15T04:41:57;12.60;99.90
70820;DHT22;58439;51.046;13.692;2023-05-15T04:44:24;12.60;99.90
70820;DHT22;58439;51.046;13.692;2023-05-15T04:46:51;12.70;99.90
70820;DHT22;58439;51.046;13.692;2023-05-15T04:49:18;12.70;99.90
70820;DHT22;58439;51.046;13.692;2023-05-15T04:51:48;12.70;99.90
70820;DHT22;58439;51.046;13.692;2023-05-15T04:54:15;12.70;99.90
70820;DHT22;58439;51.046;13.692;2023-05-15T04:56:48;12.70;99.90
70820;DHT22;58439;51.046;13.692;2023-05-15T05:00:09;12.70;99.90
70820;DHT22;58439;51.046;13.692;2023-05-15T05:03:17;12.80;99.90
70820;DHT22;58439;51.046;13.692;2023-05-15T05:06:11;12.80;99.90
70820;DHT22;58439;51.046;13.692;2023-05-15T05:08:41;12.90;99.90
70820;DHT22;58439;51.046;13.692;2023-05-15T05:11:20;12.90;99.90
70820;DHT22;58439;51.046;13.692;2023-05-15T05:13:54;12.90;99.90
70820;DHT22;58439;51.046;13.692;2023-05-15T05:19:19;13.10;99.90
70820;DHT22;58439;51.046;13.692;2023-05-15T05:21:54;13.10;99.90
70820;DHT22;58439;51.046;13.692;2023-05-15T05:24:29;13.20;99.90
70820;DHT22;58439;51.046;13.692;2023-05-15T05:27:07;13.30;99.90
70820;DHT22;58439;51.046;13.692;2023-05-15T05:29:51;13.30;99.90
70820;DHT22;58439;51.046;13.692;2023-05-15T05:32:23;13.40;99.90
70820;DHT22;58439;51.046;13.692;2023-05-15T05:34:50;13.40;99.90
70820;DHT22;58439;51.046;13.692;2023-05-15T05:37:19;13.40;99.90
70820;DHT22;58439;51.046;13.692;2023-05-15T05:39:46;13.50;99.90
70820;DHT22;58439;51.046;13.692;2023-05-15T05:42:14;13.50;99.90
70820;DHT22;58439;51.046;13.692;2023-05-15T05:44:41;13.60;99.90
70820;DHT22;58439;51.046;13.692;2023-05-15T05:47:08;13.70;99.90
70820;DHT22;58439;51.046;13.692;2023-05-15T05:49:35;13.70;99.90
70820;DHT22;58439;51.046;13.692;2023-05-15T05:52:08;13.70;99.90
70820;DHT22;58439;51.046;13.692;2023-05-15T05:54:35;13.80;99.90
70820;DHT22;58439;51.046;13.692;2023-05-15T05:57:03;13.80;99.70
70820;DHT22;58439;51.046;13.692;2023-05-15T05:59:39;13.80;99.50
70820;DHT22;58439;51.046;13.692;2023-05-15T06:02:07;13.90;99.50
70820;DHT22;58439;51.046;13.692;2023-05-15T06:04:36;13.90;99.30
70820;DHT22;58439;51.046;13.692;2023-05-15T06:07:03;14.00;99.20
70820;DHT22;58439;51.046;13.692;2023-05-15T06:09:31;14.10;99.00
70820;DHT22;58439;51.046;13.692;2023-05-15T06:12:20;14.10;98.70
70820;DHT22;58439;51.046;13.692;2023-05-15T06:15:13;14.20;98.80
70820;DHT22;58439;51.046;13.692;2023-05-15T06:17:48;14.30;98.40
70820;DHT22;58439;51.046;13.692;2023-05-15T06:20:23;14.40;98.00
70820;DHT22;58439;51.046;13.692;2023-05-15T06:22:58;14.50;97.80
70820;DHT22;58439;51.046;13.692;2023-05-15T06:26:07;14.60;97.50
70820;DHT22;58439;51.046;13.692;2023-05-15T06:28:40;14.70;97.30
70820;DHT22;58439;51.046;13.692;2023-05-15T06:31:07;14.90;97.30
70820;DHT22;58439;51.046;13.692;2023-05-15T06:33:39;15.00;96.00
70820;DHT22;58439;51.046;13.692;2023-05-15T06:36:07;15.20;95.90
70820;DHT22;58439;51.046;13.692;2023-05-15T06:38:44;15.30;95.40
70820;DHT22;58439;51.046;13.692;2023-05-15T06:41:14;15.50;94.20
70820;DHT22;58439;51.046;13.692;2023-05-15T06:43:41;15.50;92.90
70820;DHT22;58439;51.046;13.692;2023-05-15T06:46:08;15.50;92.40
70820;DHT22;58439;51.046;13.692;2023-05-15T06:48:54;15.50;91.90
70820;DHT22;58439;51.046;13.692;2023-05-15T06:51:21;15.60;91.70
70820;DHT22;58439;51.046;13.692;2023-05-15T06:53:48;15.60;91.80
70820;DHT22;58439;51.046;13.692;2023-05-15T06:59:41;15.70;91.20
70820;DHT22;58439;51.046;13.692;2023-05-15T07:05:44;15.90;90.50
70820;DHT22;58439;51.046;13.692;2023-05-15T07:08:28;15.90;90.20
70820;DHT22;58439;51.046;13.692;2023-05-15T07:10:57;15.90;90.40
70820;DHT22;58439;51.046;13.692;2023-05-15T07:13:25;15.90;90.60
70820;DHT22;58439;51.046;13.692;2023-05-15T07:15:52;15.90;90.50
70820;DHT22;58439;51.046;13.692;2023-05-15T07:18:23;16.00;90.80
70820;DHT22;58439;51.046;13.692;2023-05-15T07:20:54;16.10;90.70
70820;DHT22;58439;51.046;13.692;2023-05-15T07:23:22;16.10;90.30
70820;DHT22;58439;51.046;13.692;2023-05-15T07:25:58;16.20;89.40
70820;DHT22;58439;51.046;13.692;2023-05-15T07:28:29;16.20;89.30
70820;DHT22;58439;51.046;13.692;2023-05-15T07:30:56;16.40;89.70
70820;DHT22;58439;51.046;13.692;2023-05-15T07:33:23;16.50;87.70
70820;DHT22;58439;51.046;13.692;2023-05-15T07:35:52;16.50;85.80
70820;DHT22;58439;51.046;13.692;2023-05-15T07:38:19;16.60;83.50
70820;DHT22;58439;51.046;13.692;2023-05-15T07:40:47;16.60;83.50
70820;DHT22;58439;51.046;13.692;2023-05-15T07:43:14;16.60;83.50
70820;DHT22;58439;51.046;13.692;2023-05-15T07:45:42;16.60;81.60
70820;DHT22;58439;51.046;13.692;2023-05-15T07:48:16;16.60;81.20
70820;DHT22;58439;51.046;13.692;2023-05-15T07:50:46;16.60;81.60
70820;DHT22;58439;51.046;13.692;2023-05-15T07:53:14;16.60;81.80
70820;DHT22;58439;51.046;13.692;2023-05-15T07:55:45;16.60;82.30
70820;DHT22;58439;51.046;13.692;2023-05-15T07:58:12;16.60;83.00
70820;DHT22;58439;51.046;13.692;2023-05-15T08:00:40;16.60;83.10
70820;DHT22;58439;51.046;13.692;2023-05-15T08:03:08;16.60;82.80
70820;DHT22;58439;51.046;13.692;2023-05-15T08:05:37;16.60;82.30
70820;DHT22;58439;51.046;13.692;2023-05-15T08:08:05;16.60;82.60
70820;DHT22;58439;51.046;13.692;2023-05-15T08:10:33;16.70;83.00
70820;DHT22;58439;51.046;13.692;2023-05-15T08:13:01;16.70;82.90
70820;DHT22;58439;51.046;13.692;2023-05-15T08:15:29;16.70;82.60
70820;DHT22;58439;51.046;13.692;2023-05-15T08:39:23;17.10;81.20
70820;DHT22;58439;51.046;13.692;2023-05-15T09:15:23;16.90;80.40
70820;DHT22;58439;51.046;13.692;2023-05-15T09:17:51;16.90;80.90
70820;DHT22;58439;51.046;13.692;2023-05-15T09:20:31;16.90;80.80
70820;DHT22;58439;51.046;13.692;2023-05-15T09:23:20;17.00;80.00
70820;DHT22;58439;51.046;13.692;2023-05-15T09:30:48;17.20;78.70
70820;DHT22;58439;51.046;13.692;2023-05-15T09:33:38;17.50;77.50
70820;DHT22;58439;51.046;13.692;2023-05-15T09:36:07;17.80;73.60
70820;DHT22;58439;51.046;13.692;2023-05-15T09:38:41;18.10;71.80
70820;DHT22;58439;51.046;13.692;2023-05-15T09:41:09;18.30;69.20
70820;DHT22;58439;51.046;13.692;2023-05-15T09:43:40;18.50;66.20
70820;DHT22;58439;51.046;13.692;2023-05-15T09:46:33;18.60;64.50
70820;DHT22;58439;51.046;13.692;2023-05-15T09:49:02;18.70;63.90
70820;DHT22;58439;51.046;13.692;2023-05-15T09:51:29;18.70;64.40
70820;DHT22;58439;51.046;13.692;2023-05-15T09:53:57;18.90;63.50
70820;DHT22;58439;51.046;13.692;2023-05-15T09:56:50;19.00;63.10
70820;DHT22;58439;51.046;13.692;2023-05-15T10:04:33;19.10;60.20
70820;DHT22;58439;51.046;13.692;2023-05-15T10:07:06;19.20;57.10
70820;DHT22;58439;51.046;13.692;2023-05-15T10:18:07;19.80;52.60
70820;DHT22;58439;51.046;13.692;2023-05-15T10:20:37;20.00;50.70
70820;DHT22;58439;51.046;13.692;2023-05-15T10:23:31;20.00;49.20
70820;DHT22;58439;51.046;13.692;2023-05-15T10:27:45;20.00;47.90
70820;DHT22;58439;51.046;13.692;2023-05-15T10:35:18;19.90;46.10
70820;DHT22;58439;51.046;13.692;2023-05-15T10:38:53;19.90;45.30
70820;DHT22;58439;51.046;13.692;2023-05-15T10:41:22;20.00;43.80
70820;DHT22;58439;51.046;13.692;2023-05-15T10:43:52;19.90;44.30
70820;DHT22;58439;51.046;13.692;2023-05-15T10:46:20;20.10;44.40
70820;DHT22;58439;51.046;13.692;2023-05-15T10:48:48;20.40;42.20
70820;DHT22;58439;51.046;13.692;2023-05-15T10:51:26;20.50;40.70
70820;DHT22;58439;51.046;13.692;2023-05-15T10:53:56;20.70;39.70
70820;DHT22;58439;51.046;13.692;2023-05-15T10:56:32;20.90;39.70
70820;DHT22;58439;51.046;13.692;2023-05-15T10:59:38;21.10;38.60
70820;DHT22;58439;51.046;13.692;2023-05-15T11:02:27;21.60;36.70
70820;DHT22;58439;51.046;13.692;2023-05-15T11:05:14;22.20;34.90
70820;DHT22;58439;51.046;13.692;2023-05-15T11:07:43;22.80;33.40
70820;DHT22;58439;51.046;13.692;2023-05-15T11:10:35;23.20;32.90
70820;DHT22;58439;51.046;13.692;2023-05-15T11:13:04;23.70;32.50
70820;DHT22;58439;51.046;13.692;2023-05-15T11:15:44;24.00;30.80
70820;DHT22;58439;51.046;13.692;2023-05-15T11:18:13;23.80;31.40
70820;DHT22;58439;51.046;13.692;2023-05-15T11:23:21;23.80;31.30
70820;DHT22;58439;51.046;13.692;2023-05-15T11:25:54;23.70;31.00
70820;DHT22;58439;51.046;13.692;2023-05-15T11:28:24;23.30;31.70
70820;DHT22;58439;51.046;13.692;2023-05-15T11:31:05;22.70;32.40
70820;DHT22;58439;51.046;13.692;2023-05-15T11:33:33;21.90;33.80
70820;DHT22;58439;51.046;13.692;2023-05-15T11:36:00;21.30;35.60
70820;DHT22;58439;51.046;13.692;2023-05-15T11:38:36;20.70;37.40
70820;DHT22;58439;51.046;13.692;2023-05-15T11:41:30;20.10;40.10
70820;DHT22;58439;51.046;13.692;2023-05-15T11:44:01;19.30;43.90
70820;DHT22;58439;51.046;13.692;2023-05-15T11:46:29;18.60;52.10
70820;DHT22;58439;51.046;13.692;2023-05-15T11:48:59;18.00;76.60
70820;DHT22;58439;51.046;13.692;2023-05-15T11:51:27;17.30;86.40
70820;DHT22;58439;51.046;13.692;2023-05-15T11:53:57;16.80;90.50
70820;DHT22;58439;51.046;13.692;2023-05-15T11:56:26;16.40;92.10
70820;DHT22;58439;51.046;13.692;2023-05-15T11:58:57;16.20;93.00
70820;DHT22;58439;51.046;13.692;2023-05-15T12:01:26;16.10;94.00
70820;DHT22;58439;51.046;13.692;2023-05-15T12:03:55;16.10;94.10
70820;DHT22;58439;51.046;13.692;2023-05-15T12:06:23;16.20;94.10
70820;DHT22;58439;51.046;13.692;2023-05-15T12:08:53;16.20;94.60
70820;DHT22;58439;51.046;13.692;2023-05-15T12:11:24;16.40;95.20
70820;DHT22;58439;51.046;13.692;2023-05-15T12:13:54;16.60;94.70
70820;DHT22;58439;51.046;13.692;2023-05-15T12:16:25;16.90;94.00
70820;DHT22;58439;51.046;13.692;2023-05-15T12:18:55;17.30;93.40
70820;DHT22;58439;51.046;13.692;2023-05-15T12:21:25;17.70;91.30
70820;DHT22;58439;51.046;13.692;2023-05-15T12:23:53;18.20;90.10
70820;DHT22;58439;51.046;13.692;2023-05-15T12:26:34;18.70;83.70
70820;DHT22;58439;51.046;13.692;2023-05-15T12:29:02;19.50;81.90
70820;DHT22;58439;51.046;13.692;2023-05-15T12:31:33;20.80;72.80
70820;DHT22;58439;51.046;13.692;2023-05-15T12:34:04;21.90;59.20
70820;DHT22;58439;51.046;13.692;2023-05-15T12:36:32;22.30;49.80
70820;DHT22;58439;51.046;13.692;2023-05-15T12:39:04;22.10;46.60
70820;DHT22;58439;51.046;13.692;2023-05-15T12:41:36;21.90;49.40
70820;DHT22;58439;51.046;13.692;2023-05-15T12:44:04;22.10;47.50
70820;DHT22;58439;51.046;13.692;2023-05-15T12:46:32;22.30;43.40
70820;DHT22;58439;51.046;13.692;2023-05-15T12:48:59;22.80;44.10
70820;DHT22;58439;51.046;13.692;2023-05-15T12:51:27;23.20;41.30
70820;DHT22;58439;51.046;13.692;2023-05-15T12:53:56;23.80;39.50
70820;DHT22;58439;51.046;13.692;2023-05-15T12:56:24;24.50;37.00
70820;DHT22;58439;51.046;13.692;2023-05-15T12:58:51;24.80;35.20
70820;DHT22;58439;51.046;13.692;2023-05-15T13:01:20;24.60;34.90
70820;DHT22;58439;51.046;13.692;2023-05-15T13:03:48;24.40;35.60
70820;DHT22;58439;51.046;13.692;2023-05-15T13:06:16;24.20;35.70
70820;DHT22;58439;51.046;13.692;2023-05-15T13:08:45;24.00;35.50
70820;DHT22;58439;51.046;13.692;2023-05-15T13:11:13;23.90;35.00
70820;DHT22;58439;51.046;13.692;2023-05-15T13:13:47;24.10;35.00
70820;DHT22;58439;51.046;13.692;2023-05-15T13:18:47;24.90;30.00
70820;DHT22;58439;51.046;13.692;2023-05-15T13:21:14;25.00;29.00
70820;DHT22;58439;51.046;13.692;2023-05-15T13:23:42;25.10;28.00
70820;DHT22;58439;51.046;13.692;2023-05-15T13:26:12;25.20;27.30
70820;DHT22;58439;51.046;13.692;2023-05-15T13:28:39;25.60;27.20
70820;DHT22;58439;51.046;13.692;2023-05-15T13:31:07;25.50;28.60
70820;DHT22;58439;51.046;13.692;2023-05-15T13:33:34;25.10;30.00
70820;DHT22;58439;51.046;13.692;2023-05-15T13:36:02;24.50;31.80
70820;DHT22;58439;51.046;13.692;2023-05-15T13:38:47;24.20;33.50
70820;DHT22;58439;51.046;13.692;2023-05-15T13:41:14;24.70;33.30
70820;DHT22;58439;51.046;13.692;2023-05-15T13:43:41;24.70;32.70
70820;DHT22;58439;51.046;13.692;2023-05-15T13:46:08;24.40;32.80
70820;DHT22;58439;51.046;13.692;2023-05-15T13:48:36;24.60;32.90
70820;DHT22;58439;51.046;13.692;2023-05-15T13:51:03;25.70;31.20
70820;DHT22;58439;51.046;13.692;2023-05-15T13:53:30;27.00;29.90
70820;DHT22;58439;51.046;13.692;2023-05-15T13:55:58;28.00;28.00
70820;DHT22;58439;51.046;13.692;2023-05-15T13:58:25;28.10;27.00
70820;DHT22;58439;51.046;13.692;2023-05-15T14:00:52;27.20;27.40
70820;DHT22;58439;51.046;13.692;2023-05-15T14:03:19;26.20;28.00
70820;DHT22;58439;51.046;13.692;2023-05-15T14:05:47;25.40;29.30
70820;DHT22;58439;51.046;13.692;2023-05-15T14:08:14;24.70;30.10
70820;DHT22;58439;51.046;13.692;2023-05-15T14:10:41;24.30;31.10
70820;DHT22;58439;51.046;13.692;2023-05-15T14:13:09;24.00;31.70
70820;DHT22;58439;51.046;13.692;2023-05-15T14:15:36;23.90;32.50
70820;DHT22;58439;51.046;13.692;2023-05-15T14:18:03;23.80;32.50
70820;DHT22;58439;51.046;13.692;2023-05-15T14:20:30;23.70;32.90
70820;DHT22;58439;51.046;13.692;2023-05-15T14:22:57;23.70;32.50
70820;DHT22;58439;51.046;13.692;2023-05-15T14:25:24;23.50;32.20
70820;DHT22;58439;51.046;13.692;2023-05-15T14:27:51;23.40;32.90
70820;DHT22;58439;51.046;13.692;2023-05-15T14:30:20;23.30;33.10
70820;DHT22;58439;51.046;13.692;2023-05-15T14:32:48;23.10;34.00
70820;DHT22;58439;51.046;13.692;2023-05-15T14:35:15;22.60;34.90
70820;DHT22;58439;51.046;13.692;2023-05-15T14:37:43;22.30;35.60
70820;DHT22;58439;51.046;13.692;2023-05-15T14:40:11;22.00;37.10
70820;DHT22;58439;51.046;13.692;2023-05-15T14:42:41;21.70;38.50
70820;DHT22;58439;51.046;13.692;2023-05-15T14:45:09;21.70;38.30
70820;DHT22;58439;51.046;13.692;2023-05-15T14:47:36;21.70;38.70
70820;DHT22;58439;51.046;13.692;2023-05-15T14:50:03;21.80;38.60
70820;DHT22;58439;51.046;13.692;2023-05-15T14:52:31;21.80;39.00
70820;DHT22;58439;51.046;13.692;2023-05-15T14:54:59;21.70;39.00
70820;DHT22;58439;51.046;13.692;2023-05-15T14:57:37;21.70;38.90
70820;DHT22;58439;51.046;13.692;2023-05-15T15:00:07;22.30;38.60
70820;DHT22;58439;51.046;13.692;2023-05-15T15:02:38;23.40;36.90
70820;DHT22;58439;51.046;13.692;2023-05-15T15:05:05;24.80;33.60
70820;DHT22;58439;51.046;13.692;2023-05-15T15:07:56;26.00;31.50
70820;DHT22;58439;51.046;13.692;2023-05-15T15:10:27;27.10;29.40
70820;DHT22;58439;51.046;13.692;2023-05-15T15:12:55;27.70;27.80
70820;DHT22;58439;51.046;13.692;2023-05-15T15:15:23;28.40;27.00
70820;DHT22;58439;51.046;13.692;2023-05-15T15:17:51;28.90;26.00
70820;DHT22;58439;51.046;13.692;2023-05-15T15:20:19;29.20;25.60
70820;DHT22;58439;51.046;13.692;2023-05-15T15:22:46;29.60;24.80
70820;DHT22;58439;51.046;13.692;2023-05-15T15:25:13;29.80;24.10
70820;DHT22;58439;51.046;13.692;2023-05-15T15:27:44;29.40;23.00
70820;DHT22;58439;51.046;13.692;2023-05-15T15:30:30;29.30;24.10
70820;DHT22;58439;51.046;13.692;2023-05-15T15:32:59;29.60;22.80
70820;DHT22;58439;51.046;13.692;2023-05-15T15:35:29;29.10;21.30
70820;DHT22;58439;51.046;13.692;2023-05-15T15:37:57;28.60;21.80
70820;DHT22;58439;51.046;13.692;2023-05-15T15:40:24;28.00;22.00
70820;DHT22;58439;51.046;13.692;2023-05-15T15:42:51;26.80;22.70
70820;DHT22;58439;51.046;13.692;2023-05-15T15:45:20;25.40;24.20
70820;DHT22;58439;51.046;13.692;2023-05-15T15:47:47;24.40;25.60
70820;DHT22;58439;51.046;13.692;2023-05-15T15:50:38;23.50;28.10
70820;DHT22;58439;51.046;13.692;2023-05-15T15:54:44;22.50;31.30
70820;DHT22;58439;51.046;13.692;2023-05-15T16:01:30;19.40;42.10
70820;DHT22;58439;51.046;13.692;2023-05-15T16:05:47;19.00;44.00
70820;DHT22;58439;51.046;13.692;2023-05-15T16:08:30;18.60;69.80
70820;DHT22;58439;51.046;13.692;2023-05-15T16:11:01;17.90;85.40
70820;DHT22;58439;51.046;13.692;2023-05-15T16:13:29;17.30;90.80
70820;DHT22;58439;51.046;13.692;2023-05-15T16:15:56;16.80;93.00
70820;DHT22;58439;51.046;13.692;2023-05-15T16:18:24;16.70;94.20
70820;DHT22;58439;51.046;13.692;2023-05-15T16:20:51;16.60;94.60
70820;DHT22;58439;51.046;13.692;2023-05-15T16:23:20;16.60;95.10
70820;DHT22;58439;51.046;13.692;2023-05-15T16:25:47;16.70;94.20
70820;DHT22;58439;51.046;13.692;2023-05-15T16:28:14;16.90;95.90
70820;DHT22;58439;51.046;13.692;2023-05-15T16:30:42;17.20;95.80
70820;DHT22;58439;51.046;13.692;2023-05-15T16:33:16;17.40;95.50
70820;DHT22;58439;51.046;13.692;2023-05-15T16:35:46;17.50;94.10
70820;DHT22;58439;51.046;13.692;2023-05-15T16:54:34;17.40;92.10
70820;DHT22;58439;51.046;13.692;2023-05-15T16:57:01;17.20;91.30
70820;DHT22;58439;51.046;13.692;2023-05-15T16:59:32;17.20;91.10
70820;DHT22;58439;51.046;13.692;2023-05-15T17:01:59;17.00;91.70
70820;DHT22;58439;51.046;13.692;2023-05-15T17:04:26;16.90;92.30
70820;DHT22;58439;51.046;13.692;2023-05-15T17:11:10;16.50;92.60
70820;DHT22;58439;51.046;13.692;2023-05-15T17:14:12;16.40;93.60
70820;DHT22;58439;51.046;13.692;2023-05-15T17:17:18;16.30;94.20
70820;DHT22;58439;51.046;13.692;2023-05-15T17:20:55;16.30;94.80
70820;DHT22;58439;51.046;13.692;2023-05-15T17:23:22;16.40;95.60
70820;DHT22;58439;51.046;13.692;2023-05-15T17:25:50;16.60;96.40
70820;DHT22;58439;51.046;13.692;2023-05-15T17:29:41;16.90;96.40
70820;DHT22;58439;51.046;13.692;2023-05-15T17:37:25;17.80;93.80
70820;DHT22;58439;51.046;13.692;2023-05-15T17:40:25;17.80;92.90
70820;DHT22;58439;51.046;13.692;2023-05-15T17:42:58;17.80;92.10
70820;DHT22;58439;51.046;13.692;2023-05-15T17:46:20;17.70;91.20
70820;DHT22;58439;51.046;13.692;2023-05-15T17:53:08;17.50;91.00
70820;DHT22;58439;51.046;13.692;2023-05-15T17:56:15;17.30;90.50
70820;DHT22;58439;51.046;13.692;2023-05-15T17:59:10;17.10;91.00
70820;DHT22;58439;51.046;13.692;2023-05-15T18:01:40;17.00;91.00
70820;DHT22;58439;51.046;13.692;2023-05-15T18:04:54;17.00;90.80
70820;DHT22;58439;51.046;13.692;2023-05-15T18:07:42;16.90;90.90
70820;DHT22;58439;51.046;13.692;2023-05-15T18:11:07;16.90;90.60
70820;DHT22;58439;51.046;13.692;2023-05-15T18:17:37;16.60;89.20
70820;DHT22;58439;51.046;13.692;2023-05-15T18:20:05;16.40;89.60
70820;DHT22;58439;51.046;13.692;2023-05-15T18:22:33;16.10;92.70
70820;DHT22;58439;51.046;13.692;2023-05-15T18:25:01;15.80;93.60
70820;DHT22;58439;51.046;13.692;2023-05-15T18:27:28;15.50;94.90
70820;DHT22;58439;51.046;13.692;2023-05-15T18:29:57;15.30;95.70
70820;DHT22;58439;51.046;13.692;2023-05-15T18:32:24;15.20;95.80
70820;DHT22;58439;51.046;13.692;2023-05-15T18:34:56;15.20;96.60